Time;durP1;ratioP1;P1;durP2;ratioP2;P2;SDS_P1;SDS_P2;PMS_P1;PMS_P2;Temp;Humidity;BMP_temperature;BMP_pressure;BME280_temperature;BME280_humidity;BME280_pressure;Samples;Min_cycle;Max_cycle;Signal;HPM_P1;HPM_P2
2021/08/14 00:01:12;;;;;;;;;;;;;;;24.07;53.99;101562.28;5116757;27;1971;-48
2021/08/14 00:03:39;;;;;;;;;;;;;;;24.17;53.73;101573.06;5117410;27;1796;-48
2021/08/14 00:06:09;;;;;;;;;;;;;;;24.13;54.32;101569.81;5122556;27;1815;-48
2021/08/14 00:08:38;;;;;;;;;;;;;;;24.09;54.31;101583.75;5117279;27;1882;-48
2021/08/14 00:11:10;;;;;;;;;;;;;;;24.02;53.96;101578.97;5096756;28;2126;-48
2021/08/14 00:13:36;;;;;;;;;;;;;;;23.91;54.40;101581.00;5110158;28;1911;-48
2021/08/14 00:16:04;;;;;;;;;;;;;;;24.01;54.61;101563.78;5116028;27;1288;-48
2021/08/14 00:18:31;;;;;;;;;;;;;;;23.94;54.35;101570.75;5129058;27;1076;-48
2021/08/14 00:21:01;;;;;;;;;;;;;;;23.89;54.53;101578.44;5128860;27;2022;-48
2021/08/14 00:23:30;;;;;;;;;;;;;;;23.92;54.36;101583.56;5127619;27;1832;-48
2021/08/14 00:25:59;;;;;;;;;;;;;;;23.98;54.12;101569.47;5131244;27;1838;-48
2021/08/14 00:28:30;;;;;;;;;;;;;;;24.00;54.34;101580.97;5123296;27;1434;-48
2021/08/14 00:30:56;;;;;;;;;;;;;;;24.02;54.50;101589.78;5116679;27;1946;-49
2021/08/14 00:33:26;;;;;;;;;;;;;;;24.05;53.89;101583.22;5109077;27;1535;-48
2021/08/14 00:35:55;;;;;;;;;;;;;;;23.98;54.16;101576.72;5117758;27;1952;-47
2021/08/14 00:38:24;;;;;;;;;;;;;;;23.99;54.36;101586.50;5122103;27;1621;-48
2021/08/14 00:40:50;;;;;;;;;;;;;;;23.91;54.08;101581.00;5117878;28;1906;-48
2021/08/14 00:43:17;;;;;;;;;;;;;;;23.79;54.72;101577.63;5122063;28;1553;-48
2021/08/14 00:45:48;;;;;;;;;;;;;;;23.71;54.70;101582.88;5125596;28;1321;-48
2021/08/14 00:48:14;;;;;;;;;;;;;;;23.81;54.34;101579.22;5129512;28;1791;-48
2021/08/14 00:50:43;;;;;;;;;;;;;;;23.82;54.25;101582.75;5133084;28;1849;-48
2021/08/14 00:53:12;;;;;;;;;;;;;;;23.88;53.89;101563.25;5121164;27;1738;-49
2021/08/14 00:55:42;;;;;;;;;;;;;;;23.76;54.21;101562.56;5128304;27;1578;-48
2021/08/14 00:58:08;;;;;;;;;;;;;;;23.78;54.29;101576.78;5133249;27;957;-48
2021/08/14 01:00:35;;;;;;;;;;;;;;;23.77;54.26;101576.91;5124600;27;1896;-47
2021/08/14 01:03:09;;;;;;;;;;;;;;;23.82;54.35;101578.19;5124807;27;1995;-48
2021/08/14 01:05:36;;;;;;;;;;;;;;;23.83;53.70;101579.03;5102490;27;1813;-48
2021/08/14 01:08:04;;;;;;;;;;;;;;;23.65;54.34;101572.69;5118651;27;1660;-48
2021/08/14 01:10:33;;;;;;;;;;;;;;;23.58;54.58;101575.13;5128355;27;969;-48
2021/08/14 01:13:00;;;;;;;;;;;;;;;23.50;54.78;101566.91;5132973;27;1212;-48
2021/08/14 01:15:32;;;;;;;;;;;;;;;23.58;54.63;101573.25;5123771;27;2023;-48
2021/08/14 01:18:01;;;;;;;;;;;;;;;23.64;54.21;101569.13;5130338;27;1788;-48
2021/08/14 01:20:30;;;;;;;;;;;;;;;23.67;54.07;101562.56;5098934;28;1947;-48
2021/08/14 01:23:01;;;;;;;;;;;;;;;23.63;53.90;101562.00;5105854;27;1909;-49
2021/08/14 01:25:27;;;;;;;;;;;;;;;23.55;54.28;101580.81;5118775;27;1103;-48
2021/08/14 01:27:56;;;;;;;;;;;;;;;23.62;54.51;101569.28;5120396;27;1771;-47
2021/08/14 01:30:24;;;;;;;;;;;;;;;23.60;54.53;101556.94;5127060;27;1979;-48
2021/08/14 01:32:52;;;;;;;;;;;;;;;23.50;54.52;101556.09;5111002;27;1517;-48
2021/08/14 01:35:21;;;;;;;;;;;;;;;23.59;54.13;101566.00;5097215;28;1861;-48
2021/08/14 01:37:47;;;;;;;;;;;;;;;23.68;54.26;101567.84;5131490;27;1003;-48
2021/08/14 01:40:14;;;;;;;;;;;;;;;23.55;54.32;101575.41;5127412;27;1893;-48
2021/08/14 01:42:49;;;;;;;;;;;;;;;23.55;54.72;101564.59;5127776;27;1991;-48
2021/08/14 01:45:21;;;;;;;;;;;;;;;23.64;54.66;101561.03;5121524;27;1828;-48
2021/08/14 01:47:48;;;;;;;;;;;;;;;23.59;54.58;101556.06;5114565;27;2063;-48
2021/08/14 01:50:14;;;;;;;;;;;;;;;23.47;54.54;101572.59;5116506;28;1555;-49
2021/08/14 01:52:42;;;;;;;;;;;;;;;23.49;54.71;101565.19;5122151;27;1103;-48
2021/08/14 01:55:11;;;;;;;;;;;;;;;23.52;54.18;101559.50;5126229;27;2140;-48
2021/08/14 01:57:39;;;;;;;;;;;;;;;23.58;54.21;101569.72;5126626;27;1776;-48
2021/08/14 02:02:48;;;;;;;;;;;;;;;23.51;54.19;101579.38;5086730;22;1971;-46
2021/08/14 02:05:18;;;;;;;;;;;;;;;23.57;54.37;101578.81;5043421;28;1761;-45
2021/08/14 02:07:45;;;;;;;;;;;;;;;23.46;54.46;101570.88;5063543;28;1763;-45
2021/08/14 02:10:13;;;;;;;;;;;;;;;23.39;54.46;101571.44;5064914;28;1774;-46
2021/08/14 02:12:40;;;;;;;;;;;;;;;23.34;54.34;101576.44;5054682;28;1518;-46
2021/08/14 02:15:28;;;;;;;;;;;;;;;23.34;54.33;101583.69;5049596;28;1668;-46
2021/08/14 02:18:01;;;;;;;;;;;;;;;23.46;54.06;101587.06;5057504;28;1720;-46
2021/08/14 02:20:43;;;;;;;;;;;;;;;23.46;54.21;101581.66;5054015;28;1753;-46
2021/08/14 02:23:11;;;;;;;;;;;;;;;23.52;54.02;101587.34;5070194;28;1906;-46
2021/08/14 02:25:40;;;;;;;;;;;;;;;23.53;53.88;101574.69;5034630;28;1492;-46
2021/08/14 02:28:09;;;;;;;;;;;;;;;23.55;53.80;101594.31;5054732;28;1099;-46
2021/08/14 02:30:35;;;;;;;;;;;;;;;23.51;54.15;101585.63;5041906;28;1736;-46
2021/08/14 02:33:10;;;;;;;;;;;;;;;23.44;54.16;101579.13;5058564;28;1665;-46
2021/08/14 02:35:39;;;;;;;;;;;;;;;23.37;54.25;101580.69;5054058;28;1586;-46
2021/08/14 02:38:05;;;;;;;;;;;;;;;23.43;54.31;101589.06;5065227;28;1551;-47
2021/08/14 02:40:32;;;;;;;;;;;;;;;23.38;54.11;101585.97;5039351;28;1656;-46
2021/08/14 02:42:59;;;;;;;;;;;;;;;23.37;53.79;101583.41;5058760;28;1978;-46
2021/08/14 02:45:25;;;;;;;;;;;;;;;23.45;53.67;101590.78;5054887;28;1560;-46
2021/08/14 02:47:54;;;;;;;;;;;;;;;23.40;53.87;101588.53;5059034;28;1657;-46
2021/08/14 02:50:22;;;;;;;;;;;;;;;23.40;53.93;101591.22;5070597;28;1463;-47
2021/08/14 02:52:48;;;;;;;;;;;;;;;23.35;53.80;101586.22;5058588;28;1530;-48
2021/08/14 02:55:15;;;;;;;;;;;;;;;23.28;54.29;101595.91;5059920;28;1957;-46
2021/08/14 02:57:41;;;;;;;;;;;;;;;23.15;54.39;101601.59;5054568;28;1657;-46
2021/08/14 03:00:08;;;;;;;;;;;;;;;23.18;54.34;101601.31;5059284;28;1960;-46
2021/08/14 03:02:35;;;;;;;;;;;;;;;23.10;54.86;101603.88;5063488;28;1976;-46
2021/08/14 03:05:01;;;;;;;;;;;;;;;23.15;53.96;101585.41;5040006;28;1658;-46
2021/08/14 03:07:30;;;;;;;;;;;;;;;23.25;54.21;101607.00;5057742;28;1990;-45
2021/08/14 03:09:57;;;;;;;;;;;;;;;23.40;53.76;101594.75;5059986;28;2063;-46
2021/08/14 03:12:23;;;;;;;;;;;;;;;23.46;53.53;101600.56;5058004;28;1525;-46
2021/08/14 03:14:50;;;;;;;;;;;;;;;23.43;54.16;101602.56;5063023;28;1514;-45
2021/08/14 03:17:16;;;;;;;;;;;;;;;23.56;53.71;101621.16;5062482;28;1627;-46
2021/08/14 03:19:43;;;;;;;;;;;;;;;23.53;53.91;101604.41;5053411;28;1682;-45
2021/08/14 03:22:10;;;;;;;;;;;;;;;23.31;54.52;101605.56;5058424;28;1982;-46
2021/08/14 03:24:38;;;;;;;;;;;;;;;23.32;54.23;101597.34;5062083;28;1696;-46
2021/08/14 03:27:05;;;;;;;;;;;;;;;23.38;53.99;101607.56;5062526;28;1695;-47
2021/08/14 03:29:31;;;;;;;;;;;;;;;23.38;54.08;101606.72;5063588;28;1882;-45
2021/08/14 03:31:58;;;;;;;;;;;;;;;23.39;53.91;101609.22;5062841;28;1806;-46
2021/08/14 03:34:24;;;;;;;;;;;;;;;23.43;54.04;101618.75;5049292;28;1930;-46
2021/08/14 03:36:51;;;;;;;;;;;;;;;23.45;54.13;101601.56;5051222;28;1740;-46
2021/08/14 03:39:17;;;;;;;;;;;;;;;23.54;53.93;101612.34;5058688;28;1545;-46
2021/08/14 03:41:45;;;;;;;;;;;;;;;23.64;54.22;101612.34;5056717;28;1906;-46
2021/08/14 03:44:12;;;;;;;;;;;;;;;23.68;53.91;101608.34;5049320;28;2700;-47
2021/08/14 03:46:38;;;;;;;;;;;;;;;23.75;54.15;101608.59;5051037;28;2041;-46
2021/08/14 03:49:05;;;;;;;;;;;;;;;23.59;54.40;101617.31;5046707;28;1331;-47
2021/08/14 03:51:31;;;;;;;;;;;;;;;23.49;54.46;101619.19;5044367;28;1544;-46
2021/08/14 03:53:57;;;;;;;;;;;;;;;23.59;54.69;101620.00;5062790;28;1842;-45
2021/08/14 03:56:24;;;;;;;;;;;;;;;23.70;54.75;101617.16;5042521;28;1552;-46
2021/08/14 03:58:52;;;;;;;;;;;;;;;23.56;55.45;101615.75;5053885;28;1761;-46
2021/08/14 04:01:18;;;;;;;;;;;;;;;23.80;54.66;101611.75;5061183;28;1551;-46
2021/08/14 04:03:45;;;;;;;;;;;;;;;23.67;54.64;101619.28;5062386;28;1977;-45
2021/08/14 04:06:11;;;;;;;;;;;;;;;23.66;54.33;101604.09;5064314;28;1792;-45
2021/08/14 04:08:38;;;;;;;;;;;;;;;23.56;54.76;101609.53;5064364;28;1901;-46
2021/08/14 04:11:06;;;;;;;;;;;;;;;23.72;54.57;101617.84;5052328;28;1605;-45
2021/08/14 04:13:32;;;;;;;;;;;;;;;23.69;54.63;101615.44;5054834;28;1598;-47
2021/08/14 04:16:07;;;;;;;;;;;;;;;23.87;54.57;101622.81;5050835;28;1619;-46
2021/08/14 04:18:34;;;;;;;;;;;;;;;23.83;54.34;101622.25;5056861;28;1031;-46
2021/08/14 04:21:01;;;;;;;;;;;;;;;23.96;54.68;101621.94;5065525;28;1766;-46
2021/08/14 04:23:30;;;;;;;;;;;;;;;23.95;54.31;101615.66;5048268;28;1991;-46
2021/08/14 04:25:56;;;;;;;;;;;;;;;23.72;54.20;101603.50;5059535;28;2419;-46
2021/08/14 04:28:27;;;;;;;;;;;;;;;23.61;54.64;101618.00;5057243;28;1476;-47
2021/08/14 04:31:02;;;;;;;;;;;;;;;23.80;55.17;101612.59;5052354;28;1616;-46
2021/08/14 04:33:34;;;;;;;;;;;;;;;23.16;56.30;101608.72;5066514;28;1703;-48
2021/08/14 04:36:04;;;;;;;;;;;;;;;23.50;55.66;101620.91;5036840;28;1626;-46
2021/08/14 04:38:33;;;;;;;;;;;;;;;23.70;55.46;101605.50;5040966;28;1664;-46
2021/08/14 04:41:03;;;;;;;;;;;;;;;23.76;54.79;101611.16;5050099;28;1813;-46
2021/08/14 04:43:29;;;;;;;;;;;;;;;24.27;53.44;101611.69;5050902;28;1985;-47
2021/08/14 04:45:57;;;;;;;;;;;;;;;24.61;54.27;101622.78;5057903;28;1462;-46
2021/08/14 04:48:26;;;;;;;;;;;;;;;24.75;54.49;101623.25;5041603;28;1645;-46
2021/08/14 04:50:53;;;;;;;;;;;;;;;24.65;57.11;101627.88;5047801;28;1758;-46
2021/08/14 04:53:20;;;;;;;;;;;;;;;24.54;57.75;101599.22;5058099;28;1366;-45
2021/08/14 04:55:46;;;;;;;;;;;;;;;24.55;58.02;101626.09;5061341;28;1557;-46
2021/08/14 04:58:13;;;;;;;;;;;;;;;24.50;59.15;101630.22;5060955;28;995;-45
2021/08/14 05:00:39;;;;;;;;;;;;;;;24.47;59.89;101625.97;5059818;28;1803;-46
2021/08/14 05:03:06;;;;;;;;;;;;;;;24.47;60.32;101631.41;5059070;28;1910;-46
2021/08/14 05:05:32;;;;;;;;;;;;;;;24.41;60.55;101619.31;5070860;28;2134;-46
2021/08/14 05:08:00;;;;;;;;;;;;;;;24.44;60.90;101620.88;5060204;28;1639;-46
2021/08/14 05:10:27;;;;;;;;;;;;;;;24.46;61.33;101624.25;5059608;28;1719;-46
2021/08/14 05:12:53;;;;;;;;;;;;;;;24.51;61.56;101631.94;5059876;28;2097;-46
2021/08/14 05:15:20;;;;;;;;;;;;;;;24.50;61.51;101625.69;5059609;28;1663;-48
2021/08/14 05:17:46;;;;;;;;;;;;;;;24.46;61.85;101629.69;5061838;28;1782;-45
2021/08/14 05:20:13;;;;;;;;;;;;;;;24.46;62.14;101628.84;5070287;28;1092;-45
2021/08/14 05:22:40;;;;;;;;;;;;;;;24.50;63.00;101639.22;5059979;28;1985;-46
2021/08/14 05:25:08;;;;;;;;;;;;;;;24.51;63.04;101640.94;5059653;28;1674;-45
2021/08/14 05:27:34;;;;;;;;;;;;;;;24.50;61.75;101641.03;5060322;28;1648;-45
2021/08/14 05:30:01;;;;;;;;;;;;;;;24.55;62.11;101628.81;5061852;28;1752;-46
2021/08/14 05:32:27;;;;;;;;;;;;;;;24.58;61.71;101644.72;5061315;28;1550;-46
2021/08/14 05:34:54;;;;;;;;;;;;;;;24.59;62.08;101638.31;5066843;28;1107;-46
2021/08/14 05:37:20;;;;;;;;;;;;;;;24.65;62.29;101638.69;5059988;28;2143;-46
2021/08/14 05:39:47;;;;;;;;;;;;;;;24.69;61.73;101642.78;5061559;28;1798;-45
2021/08/14 05:42:15;;;;;;;;;;;;;;;24.69;61.06;101632.84;5058187;28;1546;-46
2021/08/14 05:44:41;;;;;;;;;;;;;;;24.79;61.17;101630.09;5064853;28;1906;-45
2021/08/14 05:47:08;;;;;;;;;;;;;;;24.81;60.80;101634.34;5065054;28;1952;-47
2021/08/14 05:49:34;;;;;;;;;;;;;;;24.84;59.98;101627.75;5067605;28;1169;-46
2021/08/14 05:52:04;;;;;;;;;;;;;;;24.87;59.85;101622.06;5065842;28;1864;-46
2021/08/14 05:54:31;;;;;;;;;;;;;;;24.93;59.15;101636.78;5065200;28;1864;-46
2021/08/14 05:56:57;;;;;;;;;;;;;;;24.97;59.55;101633.66;5064707;28;1657;-45
2021/08/14 05:59:25;;;;;;;;;;;;;;;25.02;59.73;101638.59;5065251;28;1719;-46
2021/08/14 06:01:51;;;;;;;;;;;;;;;25.04;59.75;101638.44;5063687;28;1726;-46
2021/08/14 06:04:18;;;;;;;;;;;;;;;25.05;58.64;101632.88;5066006;28;1910;-46
2021/08/14 06:06:45;;;;;;;;;;;;;;;25.10;59.13;101632.41;5067798;28;2216;-45
2021/08/14 06:09:12;;;;;;;;;;;;;;;25.09;59.63;101630.69;5064828;28;1446;-46
2021/08/14 06:11:38;;;;;;;;;;;;;;;25.08;59.75;101613.59;5060014;28;1708;-48
2021/08/14 06:14:05;;;;;;;;;;;;;;;25.13;58.99;101627.53;5063094;28;1662;-45
2021/08/14 06:16:33;;;;;;;;;;;;;;;25.11;58.43;101617.84;5062388;28;1652;-46
2021/08/14 06:18:59;;;;;;;;;;;;;;;25.13;58.74;101621.28;5065868;28;1037;-46
2021/08/14 06:21:26;;;;;;;;;;;;;;;25.16;59.46;101623.66;5070328;28;1971;-46
2021/08/14 06:23:52;;;;;;;;;;;;;;;25.17;59.31;101612.69;5063722;28;1906;-46
2021/08/14 06:26:18;;;;;;;;;;;;;;;25.18;59.28;101613.53;5062057;28;1798;-46
2021/08/14 06:28:45;;;;;;;;;;;;;;;25.23;59.38;101621.19;5061889;28;1468;-45
2021/08/14 06:31:11;;;;;;;;;;;;;;;25.23;58.97;101610.38;5059843;28;1443;-48
2021/08/14 06:33:39;;;;;;;;;;;;;;;25.22;59.05;101604.13;5063702;28;1084;-46
2021/08/14 06:36:06;;;;;;;;;;;;;;;25.21;58.54;101597.00;5070683;28;1733;-45
2021/08/14 06:38:32;;;;;;;;;;;;;;;25.25;58.58;101609.22;5062090;28;1719;-45
2021/08/14 06:40:58;;;;;;;;;;;;;;;25.26;58.18;101585.72;5052620;28;1648;-46
2021/08/14 06:43:25;;;;;;;;;;;;;;;25.27;58.84;101588.28;5063133;28;1906;-46
2021/08/14 06:45:51;;;;;;;;;;;;;;;25.26;58.42;101589.25;5063152;28;1077;-46
2021/08/14 06:48:18;;;;;;;;;;;;;;;25.30;59.02;101603.34;5062139;28;1960;-47
2021/08/14 06:50:46;;;;;;;;;;;;;;;25.29;58.87;101602.50;5070916;28;1949;-47
2021/08/14 06:53:12;;;;;;;;;;;;;;;25.32;58.25;101590.50;5059449;28;1662;-46
2021/08/14 06:55:39;;;;;;;;;;;;;;;25.32;58.51;101591.34;5062525;28;1580;-46
2021/08/14 06:58:05;;;;;;;;;;;;;;;25.33;58.79;101589.50;5062708;28;1078;-46
2021/08/14 07:00:33;;;;;;;;;;;;;;;25.35;58.95;101599.16;5061896;28;1842;-46
2021/08/14 07:02:59;;;;;;;;;;;;;;;25.36;58.87;101600.00;5061417;28;1906;-45
2021/08/14 07:05:26;;;;;;;;;;;;;;;25.38;58.30;101598.81;5072526;28;1872;-45
2021/08/14 07:07:54;;;;;;;;;;;;;;;25.36;58.89;101590.00;5062754;28;1085;-46
2021/08/14 07:10:20;;;;;;;;;;;;;;;25.39;59.11;101600.53;5053592;28;1621;-45
2021/08/14 07:12:47;;;;;;;;;;;;;;;25.36;58.97;101595.44;5059552;28;1945;-46
2021/08/14 07:15:13;;;;;;;;;;;;;;;25.40;58.03;101604.94;5062450;28;1303;-45
2021/08/14 07:17:40;;;;;;;;;;;;;;;25.37;58.43;101591.72;5063583;28;1937;-46
2021/08/14 07:20:07;;;;;;;;;;;;;;;25.38;58.94;101590.69;5070140;28;1170;-46
2021/08/14 07:22:33;;;;;;;;;;;;;;;25.38;58.99;101609.66;5061419;28;1770;-46
2021/08/14 07:25:01;;;;;;;;;;;;;;;25.40;59.09;101598.66;5061379;28;1976;-45
2021/08/14 07:27:28;;;;;;;;;;;;;;;25.42;57.91;101593.09;5054352;28;2071;-46
2021/08/14 07:29:54;;;;;;;;;;;;;;;25.43;58.91;101600.22;5063083;28;1704;-45
2021/08/14 07:32:21;;;;;;;;;;;;;;;25.43;58.57;101601.09;5063343;28;1676;-46
2021/08/14 07:34:47;;;;;;;;;;;;;;;25.46;58.11;101606.16;5067571;28;1083;-45
2021/08/14 07:37:14;;;;;;;;;;;;;;;25.44;58.81;101604.63;5062293;28;1817;-45
2021/08/14 07:39:40;;;;;;;;;;;;;;;25.46;58.53;101608.88;5060748;28;1909;-45
2021/08/14 07:42:08;;;;;;;;;;;;;;;25.44;58.97;101602.75;5055760;28;1556;-46
2021/08/14 07:44:34;;;;;;;;;;;;;;;25.43;58.69;101601.09;5062589;28;1978;-45
2021/08/14 07:47:01;;;;;;;;;;;;;;;25.49;59.08;101611.28;5062863;28;1752;-46
2021/08/14 07:49:27;;;;;;;;;;;;;;;25.47;58.81;101612.44;5064572;28;1089;-46
2021/08/14 07:51:54;;;;;;;;;;;;;;;25.50;58.42;101604.84;5064469;28;1970;-46
2021/08/14 07:54:20;;;;;;;;;;;;;;;25.49;58.58;101599.59;5063001;28;1975;-46
2021/08/14 07:56:47;;;;;;;;;;;;;;;25.46;58.76;101592.63;5062834;28;1843;-46
2021/08/14 07:59:14;;;;;;;;;;;;;;;25.47;58.31;101588.09;5061783;28;1910;-45
2021/08/14 08:01:41;;;;;;;;;;;;;;;25.48;57.85;101597.88;5059969;28;1787;-45
2021/08/14 08:04:07;;;;;;;;;;;;;;;25.49;57.94;101586.91;5063760;28;1906;-45
2021/08/14 08:06:34;;;;;;;;;;;;;;;25.49;58.85;101592.31;5067508;28;1972;-47
2021/08/14 08:09:00;;;;;;;;;;;;;;;25.49;58.62;101600.44;5062626;28;1788;-47
2021/08/14 08:11:27;;;;;;;;;;;;;;;25.50;58.17;101585.03;5060504;28;1945;-45
2021/08/14 08:13:53;;;;;;;;;;;;;;;25.51;58.73;101595.72;5060472;28;1951;-46
2021/08/14 08:16:21;;;;;;;;;;;;;;;25.47;58.33;101574.53;5061140;28;1866;-45
2021/08/14 08:18:48;;;;;;;;;;;;;;;25.51;58.69;101592.16;5063268;28;1055;-45
2021/08/14 08:21:14;;;;;;;;;;;;;;;25.51;58.60;101584.88;5069244;28;1913;-45
2021/08/14 08:23:41;;;;;;;;;;;;;;;25.48;59.04;101574.34;5060227;28;1981;-47
2021/08/14 08:26:07;;;;;;;;;;;;;;;25.49;58.13;101583.34;5060375;28;1484;-46
2021/08/14 08:28:34;;;;;;;;;;;;;;;25.52;59.03;101577.59;5061758;28;1699;-46
2021/08/14 08:31:00;;;;;;;;;;;;;;;25.53;59.05;101579.31;5061056;28;1836;-47
2021/08/14 08:33:28;;;;;;;;;;;;;;;25.52;59.09;101578.44;5061050;28;1076;-45
2021/08/14 08:35:54;;;;;;;;;;;;;;;25.50;58.86;101575.06;5069175;28;1925;-45
2021/08/14 08:38:22;;;;;;;;;;;;;;;25.52;58.10;101572.19;5061189;28;1615;-46
2021/08/14 08:40:48;;;;;;;;;;;;;;;25.54;58.79;101578.28;5051682;28;1645;-47
2021/08/14 08:43:15;;;;;;;;;;;;;;;25.56;58.76;101576.28;5061143;28;1108;-45
2021/08/14 08:45:41;;;;;;;;;;;;;;;25.54;58.82;101571.00;5068525;28;1902;-46
2021/08/14 08:48:08;;;;;;;;;;;;;;;25.54;59.06;101581.84;5059801;28;1667;-45
2021/08/14 08:50:36;;;;;;;;;;;;;;;25.52;59.15;101572.19;5061075;28;1476;-46
2021/08/14 08:53:04;;;;;;;;;;;;;;;25.51;58.18;101556.97;5060464;28;1933;-47
2021/08/14 08:55:32;;;;;;;;;;;;;;;25.55;58.86;101555.63;5060916;28;1070;-46
2021/08/14 08:57:59;;;;;;;;;;;;;;;25.52;59.21;101561.34;5059769;28;1772;-45
2021/08/14 09:00:26;;;;;;;;;;;;;;;25.56;58.93;101562.72;5059235;28;1618;-47
2021/08/14 09:03:06;;;;;;;;;;;;;;;25.57;59.01;101568.00;5060398;28;1709;-46
2021/08/14 09:05:32;;;;;;;;;;;;;;;25.56;58.46;101554.59;5035336;28;1977;-46
2021/08/14 09:08:09;;;;;;;;;;;;;;;25.57;58.23;101548.19;5060524;28;1666;-47
2021/08/14 09:10:36;;;;;;;;;;;;;;;25.57;58.47;101556.31;5049657;28;1742;-47
2021/08/14 09:13:09;;;;;;;;;;;;;;;25.55;58.46;101547.50;5061000;28;1929;-46
2021/08/14 09:15:36;;;;;;;;;;;;;;;25.57;58.43;101548.19;5063848;28;1814;-47
2021/08/14 09:18:03;;;;;;;;;;;;;;;25.52;58.73;101547.81;5063375;28;1593;-45
2021/08/14 09:20:30;;;;;;;;;;;;;;;25.55;59.33;101550.22;5039340;28;1631;-46
2021/08/14 09:23:02;;;;;;;;;;;;;;;25.54;58.54;101532.25;5062575;28;1697;-47
2021/08/14 09:25:38;;;;;;;;;;;;;;;25.55;59.04;101529.38;5067235;28;1975;-47
2021/08/14 09:28:05;;;;;;;;;;;;;;;25.55;59.15;101536.69;5064441;28;999;-45
2021/08/14 09:30:48;;;;;;;;;;;;;;;25.54;58.85;101526.84;5063312;28;1428;-46
2021/08/14 09:33:15;;;;;;;;;;;;;;;25.53;59.09;101525.16;5064178;28;1835;-45
2021/08/14 09:35:41;;;;;;;;;;;;;;;25.56;59.38;101533.78;5073835;28;1944;-47
2021/08/14 09:38:10;;;;;;;;;;;;;;;25.57;58.86;101521.13;5065497;28;1548;-46
2021/08/14 09:40:38;;;;;;;;;;;;;;;25.57;58.81;101515.69;5064172;28;1602;-47
2021/08/14 09:43:04;;;;;;;;;;;;;;;25.55;58.70;101529.38;5066087;28;1678;-46
2021/08/14 09:45:31;;;;;;;;;;;;;;;25.55;59.49;101512.31;5062209;28;1902;-46
2021/08/14 09:47:58;;;;;;;;;;;;;;;25.55;59.46;101517.72;5064616;28;1867;-45
2021/08/14 09:50:33;;;;;;;;;;;;;;;25.57;59.34;101515.69;5074011;28;1598;-47
2021/08/14 09:53:11;;;;;;;;;;;;;;;25.57;59.05;101515.69;5062621;28;1786;-46
2021/08/14 09:55:38;;;;;;;;;;;;;;;25.59;58.93;101519.09;5061888;28;1490;-46
2021/08/14 09:58:05;;;;;;;;;;;;;;;25.57;59.26;101526.53;5064220;28;1104;-46
2021/08/14 10:00:32;;;;;;;;;;;;;;;25.58;59.27;101514.66;5063830;28;1834;-46
2021/08/14 10:02:59;;;;;;;;;;;;;;;25.59;59.22;101514.50;5063387;28;1513;-46
2021/08/14 10:05:26;;;;;;;;;;;;;;;25.58;58.39;101517.38;5074442;28;2003;-46
2021/08/14 10:07:53;;;;;;;;;;;;;;;25.59;58.68;101513.69;5064213;28;1111;-46
2021/08/14 10:10:22;;;;;;;;;;;;;;;25.58;58.65;101511.97;5062521;28;1642;-45
2021/08/14 10:12:48;;;;;;;;;;;;;;;25.57;58.83;101507.56;5063157;28;1685;-46
2021/08/14 10:15:15;;;;;;;;;;;;;;;25.57;58.55;101510.28;5064149;28;1750;-45
2021/08/14 10:17:42;;;;;;;;;;;;;;;25.57;58.76;101504.88;5065196;28;1741;-46
2021/08/14 10:20:09;;;;;;;;;;;;;;;25.56;59.59;101503.16;5072907;28;1078;-46
2021/08/14 10:22:35;;;;;;;;;;;;;;;25.57;59.30;101492.16;5062962;28;1809;-45
2021/08/14 10:25:02;;;;;;;;;;;;;;;25.57;59.61;101502.16;5062906;28;1981;-46
2021/08/14 10:27:49;;;;;;;;;;;;;;;25.57;59.68;101491.31;5056324;28;2073;-46
2021/08/14 10:30:35;;;;;;;;;;;;;;;25.62;59.60;101501.66;5057556;28;1672;-46
2021/08/14 10:33:02;;;;;;;;;;;;;;;25.56;59.51;101485.03;5057931;28;1674;-46
2021/08/14 10:35:33;;;;;;;;;;;;;;;25.62;59.12;101496.25;5038315;28;1901;-46
2021/08/14 10:37:59;;;;;;;;;;;;;;;25.59;59.39;101502.84;5062250;28;1689;-46
2021/08/14 10:40:46;;;;;;;;;;;;;;;25.61;59.39;101484.56;5053284;28;1722;-45
2021/08/14 10:43:14;;;;;;;;;;;;;;;25.56;59.31;101482.31;5066158;28;1590;-46
2021/08/14 10:45:40;;;;;;;;;;;;;;;25.59;59.37;101490.13;5060584;28;1910;-46
2021/08/14 10:48:07;;;;;;;;;;;;;;;25.58;58.86;101479.47;5063277;28;1705;-46
2021/08/14 10:50:53;;;;;;;;;;;;;;;25.59;59.78;101476.59;5065224;28;1632;-45
2021/08/14 10:53:22;;;;;;;;;;;;;;;25.61;59.49;101473.72;5061739;28;1684;-46
2021/08/14 10:55:49;;;;;;;;;;;;;;;25.61;59.48;101462.91;5064764;28;1653;-46
2021/08/14 10:58:18;;;;;;;;;;;;;;;25.63;59.60;101482.53;5061435;28;1857;-47
2021/08/14 11:00:45;;;;;;;;;;;;;;;25.63;58.63;101484.41;5063250;28;1097;-46
2021/08/14 11:03:12;;;;;;;;;;;;;;;25.62;59.40;101471.88;5062352;28;1504;-45
2021/08/14 11:05:40;;;;;;;;;;;;;;;25.63;59.30;101471.72;5073149;28;1990;-45
2021/08/14 11:08:21;;;;;;;;;;;;;;;25.67;59.26;101472.25;5063895;28;1355;-46
2021/08/14 11:10:47;;;;;;;;;;;;;;;25.65;59.07;101466.97;5063342;28;1710;-45
2021/08/14 11:13:33;;;;;;;;;;;;;;;25.61;59.64;101457.47;5063945;28;999;-46
2021/08/14 11:16:00;;;;;;;;;;;;;;;25.61;59.44;101460.19;5061253;28;1398;-47
2021/08/14 11:18:42;;;;;;;;;;;;;;;25.65;59.62;101464.28;5063668;28;1090;-46
2021/08/14 11:21:09;;;;;;;;;;;;;;;25.62;59.60;101459.16;5070564;28;2038;-46
2021/08/14 11:23:35;;;;;;;;;;;;;;;25.61;59.74;101462.91;5057523;28;1622;-45
2021/08/14 11:26:01;;;;;;;;;;;;;;;25.63;59.07;101460.88;5063509;28;1909;-46
2021/08/14 11:28:28;;;;;;;;;;;;;;;25.67;58.92;101467.66;5063846;28;1750;-47
2021/08/14 11:30:58;;;;;;;;;;;;;;;25.62;59.38;101445.63;5063551;28;950;-47
2021/08/14 11:33:27;;;;;;;;;;;;;;;25.67;58.81;101464.97;5062885;28;1073;-46
2021/08/14 11:36:04;;;;;;;;;;;;;;;25.66;58.63;101455.13;5071200;28;1781;-46
2021/08/14 11:38:35;;;;;;;;;;;;;;;25.64;59.60;101443.59;5061760;28;1648;-46
2021/08/14 11:41:03;;;;;;;;;;;;;;;25.66;59.31;101455.13;5062448;28;1883;-45
2021/08/14 11:43:37;;;;;;;;;;;;;;;25.67;58.89;101453.28;5063878;28;1803;-46
2021/08/14 11:46:04;;;;;;;;;;;;;;;25.66;59.13;101432.59;5061646;28;1910;-46
2021/08/14 11:48:37;;;;;;;;;;;;;;;25.68;58.99;101436.84;5064431;28;999;-45
2021/08/14 11:51:04;;;;;;;;;;;;;;;25.63;59.39;101428.38;5057644;28;1894;-45
2021/08/14 11:53:31;;;;;;;;;;;;;;;25.65;59.94;101437.19;5062198;28;1675;-45
2021/08/14 11:56:03;;;;;;;;;;;;;;;25.64;59.59;101430.06;5063268;28;1717;-45
2021/08/14 11:58:30;;;;;;;;;;;;;;;25.62;59.49;101423.94;5062747;28;1986;-46
2021/08/14 12:00:56;;;;;;;;;;;;;;;25.62;59.31;101414.97;5060008;28;1821;-46
2021/08/14 12:03:23;;;;;;;;;;;;;;;25.67;59.01;101416.19;5062508;28;1543;-45
2021/08/14 12:05:51;;;;;;;;;;;;;;;25.65;59.64;101410.09;5070613;28;1973;-46
2021/08/14 12:08:28;;;;;;;;;;;;;;;25.71;59.88;101425.69;5063390;28;1700;-46
2021/08/14 12:10:55;;;;;;;;;;;;;;;25.67;59.01;101416.19;5059823;28;1672;-45
2021/08/14 12:13:22;;;;;;;;;;;;;;;25.67;59.52;101408.06;5062589;28;1948;-46
2021/08/14 12:15:48;;;;;;;;;;;;;;;25.67;59.05;101410.78;5063906;28;1012;-46
2021/08/14 12:18:15;;;;;;;;;;;;;;;25.64;59.52;101394.84;5061288;28;2140;-45
2021/08/14 12:20:43;;;;;;;;;;;;;;;25.69;58.98;101411.47;5071240;28;2005;-46
2021/08/14 12:23:21;;;;;;;;;;;;;;;25.65;59.16;101403.84;5063416;28;1729;-45
2021/08/14 12:25:51;;;;;;;;;;;;;;;25.71;59.69;101395.06;5062477;28;1972;-45
2021/08/14 12:28:17;;;;;;;;;;;;;;;25.70;59.71;101396.88;5059494;28;1621;-47
2021/08/14 12:30:44;;;;;;;;;;;;;;;25.68;59.65;101390.78;5062391;28;1095;-46
2021/08/14 12:33:22;;;;;;;;;;;;;;;25.71;59.05;101384.22;5061818;28;1742;-46
2021/08/14 12:35:54;;;;;;;;;;;;;;;25.71;59.70;101393.19;5069812;28;1650;-47
2021/08/14 12:38:22;;;;;;;;;;;;;;;25.73;59.32;101393.88;5062040;28;1557;-46
2021/08/14 12:40:48;;;;;;;;;;;;;;;25.71;59.68;101381.50;5062954;28;1738;-46
2021/08/14 12:43:15;;;;;;;;;;;;;;;25.66;59.07;101373.84;5062301;28;1074;-45
2021/08/14 12:45:42;;;;;;;;;;;;;;;25.68;60.03;101379.94;5061556;28;2030;-45
2021/08/14 12:48:10;;;;;;;;;;;;;;;25.66;59.35;101357.59;5061322;28;1864;-45
2021/08/14 12:50:38;;;;;;;;;;;;;;;25.69;59.96;101376.25;5071939;28;2117;-46
2021/08/14 12:53:07;;;;;;;;;;;;;;;25.70;59.31;101377.94;5062213;28;1476;-46
2021/08/14 12:55:36;;;;;;;;;;;;;;;25.72;59.07;101365.06;5062251;28;1085;-46